createdAt,value
2022-11-23T00:01:15.690Z,14.55
2022-11-23T00:03:42.514Z,11.32
2022-11-23T00:06:08.919Z,11.93
2022-11-23T00:08:35.627Z,13.48
2022-11-23T00:11:01.990Z,12.52
2022-11-23T00:13:28.400Z,9.95
2022-11-23T00:15:54.788Z,10.25
2022-11-23T00:18:21.161Z,10.60
2022-11-23T00:20:47.474Z,10.60
2022-11-23T00:23:13.836Z,10.27
2022-11-23T00:25:40.176Z,7.72
2022-11-23T00:28:06.556Z,12.90
2022-11-23T00:30:32.891Z,9.40
2022-11-23T00:32:59.468Z,7.63
2022-11-23T00:35:25.761Z,7.70
2022-11-23T00:37:52.075Z,9.20
2022-11-23T00:40:18.437Z,9.40
2022-11-23T00:42:44.764Z,7.95
2022-11-23T00:45:11.149Z,8.15
2022-11-23T00:47:37.591Z,8.27
2022-11-23T00:50:04.065Z,10.45
2022-11-23T00:52:30.458Z,8.80
2022-11-23T00:54:56.854Z,8.35
2022-11-23T00:57:23.234Z,10.13
2022-11-23T00:59:49.549Z,7.80
2022-11-23T01:02:15.866Z,9.60
2022-11-23T01:04:42.209Z,11.52
2022-11-23T01:07:08.638Z,10.73
2022-11-23T01:09:34.949Z,10.27
2022-11-23T01:12:01.235Z,9.60
2022-11-23T01:14:27.643Z,12.80
2022-11-23T01:16:53.945Z,12.25
2022-11-23T01:19:20.689Z,12.40
2022-11-23T01:21:47.233Z,12.80
2022-11-23T01:24:17.613Z,8.38
2022-11-23T01:26:46.936Z,9.88
2022-11-23T01:29:13.350Z,10.35
2022-11-23T01:31:46.225Z,8.43
2022-11-23T01:34:14.504Z,15.63
2022-11-23T01:36:41.112Z,11.80
2022-11-23T01:39:07.452Z,9.02
2022-11-23T01:41:35.629Z,13.40
2022-11-23T01:44:21.012Z,18.25
2022-11-23T01:46:47.347Z,14.90
2022-11-23T01:49:13.702Z,10.05
2022-11-23T01:51:41.205Z,12.40
2022-11-23T01:54:11.118Z,11.70
2022-11-23T01:56:39.761Z,11.38
2022-11-23T01:59:08.344Z,13.05
2022-11-23T02:01:34.807Z,9.30
2022-11-23T02:04:02.625Z,9.10
2022-11-23T02:06:30.086Z,10.95
2022-11-23T02:08:56.638Z,12.20
2022-11-23T02:11:22.938Z,7.82
2022-11-23T02:13:50.377Z,16.15
2022-11-23T02:16:17.471Z,11.27
2022-11-23T02:18:46.806Z,7.85
2022-11-23T02:21:13.318Z,8.38
2022-11-23T02:23:46.474Z,8.80
2022-11-23T02:26:20.933Z,11.43
2022-11-23T02:28:49.548Z,11.05
2022-11-23T02:31:15.951Z,6.93
2022-11-23T02:33:42.259Z,10.80
2022-11-23T02:36:27.103Z,8.85
2022-11-23T02:38:54.590Z,7.88
2022-11-23T02:41:20.882Z,7.80
2022-11-23T02:43:48.828Z,10.27
2022-11-23T02:46:15.339Z,8.93
2022-11-23T02:48:41.625Z,7.35
2022-11-23T02:51:07.914Z,12.05
2022-11-23T02:53:34.220Z,8.02
2022-11-23T02:56:00.529Z,10.55
2022-11-23T02:58:26.850Z,9.15
2022-11-23T03:00:53.176Z,8.20
2022-11-23T03:03:19.503Z,9.82
2022-11-23T03:05:45.839Z,8.32
2022-11-23T03:08:12.188Z,7.57
2022-11-23T03:10:38.481Z,7.88
2022-11-23T03:13:04.804Z,8.70
2022-11-23T03:15:32.459Z,9.38
2022-11-23T03:17:58.767Z,7.47
2022-11-23T03:20:25.394Z,8.48
2022-11-23T03:22:51.710Z,9.25
2022-11-23T03:25:18.062Z,8.65
2022-11-23T03:27:44.416Z,7.75
2022-11-23T03:30:10.874Z,6.05
2022-11-23T03:32:37.282Z,8.88
2022-11-23T03:35:04.224Z,6.43
2022-11-23T03:37:30.603Z,7.63
2022-11-23T03:39:56.927Z,9.70
2022-11-23T03:42:23.266Z,5.97
2022-11-23T03:44:49.569Z,4.88
2022-11-23T03:47:16.450Z,6.97
2022-11-23T03:49:42.775Z,3.28
2022-11-23T03:52:09.102Z,6.90
2022-11-23T03:54:35.410Z,4.60
2022-11-23T03:57:02.062Z,8.75
2022-11-23T03:59:28.374Z,8.40
2022-11-23T04:01:54.658Z,7.43
2022-11-23T04:04:21.276Z,5.65
2022-11-23T04:06:47.583Z,5.93
2022-11-23T04:09:13.910Z,7.38
2022-11-23T04:11:40.274Z,6.30
2022-11-23T04:14:06.731Z,4.20
2022-11-23T04:16:33.081Z,4.57
2022-11-23T04:18:59.450Z,5.65
2022-11-23T04:21:25.829Z,8.75
2022-11-23T04:23:52.132Z,9.50
2022-11-23T04:26:18.519Z,8.48
2022-11-23T04:28:44.821Z,10.27
2022-11-23T04:31:11.187Z,5.90
2022-11-23T04:33:37.524Z,8.45
2022-11-23T04:36:04.041Z,6.47
2022-11-23T04:38:30.346Z,6.80
2022-11-23T04:40:56.766Z,9.10
2022-11-23T04:43:23.239Z,13.63
2022-11-23T04:45:49.534Z,11.32
2022-11-23T04:48:15.922Z,6.18
2022-11-23T04:50:45.641Z,3.40
2022-11-23T04:53:13.051Z,7.97
2022-11-23T04:55:39.401Z,7.43
2022-11-23T04:58:05.716Z,9.75
2022-11-23T05:00:32.051Z,9.10
2022-11-23T05:03:01.780Z,9.20
2022-11-23T05:05:28.321Z,9.43
2022-11-23T05:07:54.791Z,8.45
2022-11-23T05:10:21.122Z,8.20
2022-11-23T05:12:47.443Z,9.38
2022-11-23T05:15:14.661Z,8.30
2022-11-23T05:17:40.991Z,8.93
2022-11-23T05:20:07.669Z,7.43
2022-11-23T05:22:33.981Z,10.20
2022-11-23T05:25:00.258Z,11.18
2022-11-23T05:27:26.551Z,10.20
2022-11-23T05:29:52.945Z,9.90
2022-11-23T05:32:19.257Z,5.45
2022-11-23T05:34:45.683Z,7.22
2022-11-23T05:37:12.063Z,4.60
2022-11-23T05:39:38.407Z,9.82
2022-11-23T05:42:04.913Z,7.25
2022-11-23T05:44:31.595Z,8.27
2022-11-23T05:46:57.986Z,7.57
2022-11-23T05:49:24.359Z,5.50
2022-11-23T05:51:50.667Z,12.60
2022-11-23T05:54:16.977Z,8.25
2022-11-23T05:56:43.329Z,5.18
2022-11-23T05:59:10.988Z,18.92
2022-11-23T06:01:37.500Z,14.75
2022-11-23T06:04:04.012Z,10.43
2022-11-23T06:06:30.339Z,6.75
2022-11-23T06:08:56.674Z,14.80
2022-11-23T06:11:23.047Z,9.32
2022-11-23T06:13:49.572Z,11.30
2022-11-23T06:16:16.367Z,8.50
2022-11-23T06:18:42.703Z,12.07
2022-11-23T06:21:08.997Z,11.13
2022-11-23T06:23:35.454Z,13.60
2022-11-23T06:26:02.263Z,8.98
2022-11-23T06:28:29.118Z,15.15
2022-11-23T06:30:55.834Z,11.80
2022-11-23T06:33:22.235Z,9.45
2022-11-23T06:35:56.937Z,12.23
2022-11-23T06:38:23.285Z,11.05
2022-11-23T06:40:49.562Z,13.05
2022-11-23T06:43:16.114Z,8.20
2022-11-23T06:45:42.833Z,10.18
2022-11-23T06:48:09.352Z,10.95
2022-11-23T06:50:35.910Z,12.20
2022-11-23T06:53:02.275Z,8.48
2022-11-23T06:55:28.554Z,13.77
2022-11-23T06:57:56.764Z,7.40
2022-11-23T07:00:23.126Z,11.65
2022-11-23T07:02:53.310Z,10.10
2022-11-23T07:05:19.728Z,14.48
2022-11-23T07:07:46.104Z,14.35
2022-11-23T07:10:13.615Z,10.48
2022-11-23T07:12:40.733Z,14.48
2022-11-23T07:15:07.718Z,13.18
2022-11-23T07:17:38.393Z,15.65
2022-11-23T07:20:04.941Z,12.65
2022-11-23T07:22:31.247Z,10.05
2022-11-23T07:24:57.632Z,8.32
2022-11-23T07:27:24.364Z,8.50
2022-11-23T07:29:50.710Z,9.20
2022-11-23T07:32:17.112Z,11.23
2022-11-23T07:34:43.434Z,9.82
2022-11-23T07:37:09.779Z,7.40
2022-11-23T07:39:56.292Z,16.58
2022-11-23T07:42:33.641Z,19.75
2022-11-23T07:45:03.216Z,11.23
2022-11-23T07:47:29.514Z,13.05
2022-11-23T07:49:55.867Z,10.52
2022-11-23T07:52:22.488Z,15.77
2022-11-23T07:54:48.789Z,14.85
2022-11-23T07:57:15.061Z,9.35
2022-11-23T07:59:41.644Z,10.68
2022-11-23T08:02:10.517Z,14.32
2022-11-23T08:04:37.084Z,9.82
2022-11-23T08:07:04.116Z,12.07
2022-11-23T08:09:30.550Z,14.13
2022-11-23T08:11:56.924Z,9.80
2022-11-23T08:14:23.792Z,9.38
2022-11-23T08:16:53.066Z,14.75
2022-11-23T08:19:19.395Z,12.82
2022-11-23T08:21:45.903Z,11.27
2022-11-23T08:24:12.216Z,13.13
2022-11-23T08:26:38.600Z,14.05
2022-11-23T08:29:05.328Z,10.88
2022-11-23T08:31:31.907Z,14.10
2022-11-23T08:34:03.273Z,13.85
2022-11-23T08:36:30.061Z,17.60
2022-11-23T08:38:56.388Z,8.52
2022-11-23T08:41:22.690Z,13.10
2022-11-23T08:43:49.082Z,12.25
2022-11-23T08:46:15.779Z,14.68
2022-11-23T08:48:42.168Z,10.65
2022-11-23T08:51:09.024Z,8.35
2022-11-23T08:53:35.538Z,9.02
2022-11-23T08:56:02.735Z,10.38
2022-11-23T08:58:29.053Z,10.80
2022-11-23T09:00:55.383Z,8.10
2022-11-23T09:03:21.690Z,10.13
2022-11-23T09:05:48.138Z,10.57
2022-11-23T09:08:16.388Z,11.98
2022-11-23T09:10:43.064Z,7.20
2022-11-23T09:13:09.510Z,12.50
2022-11-23T09:15:35.877Z,10.70
2022-11-23T09:18:02.186Z,12.57
2022-11-23T09:20:28.633Z,13.68
2022-11-23T09:22:55.429Z,7.22
2022-11-23T09:25:22.203Z,9.52
2022-11-23T09:27:49.198Z,8.05
2022-11-23T09:30:16.117Z,13.45
2022-11-23T09:32:42.537Z,11.32
2022-11-23T09:35:09.163Z,12.00
2022-11-23T09:37:35.564Z,14.20
2022-11-23T09:40:01.962Z,11.63
2022-11-23T09:42:28.343Z,17.88
2022-11-23T09:45:13.570Z,11.40
2022-11-23T09:48:03.553Z,10.20
2022-11-23T09:50:35.264Z,12.98
2022-11-23T09:53:06.706Z,11.80
2022-11-23T09:55:43.652Z,9.63
2022-11-23T09:58:13.579Z,12.35
2022-11-23T10:00:58.803Z,14.27
2022-11-23T10:03:25.249Z,13.55
2022-11-23T10:06:02.773Z,13.10
2022-11-23T10:08:31.951Z,9.05
2022-11-23T10:11:24.520Z,10.73
2022-11-23T10:14:14.247Z,12.93
2022-11-23T10:16:49.234Z,16.50
2022-11-23T10:19:19.049Z,15.63
2022-11-23T10:21:54.654Z,11.90
2022-11-23T10:24:25.117Z,13.13
2022-11-23T10:26:51.442Z,10.07
2022-11-23T10:29:35.427Z,17.00
2022-11-23T10:32:02.072Z,8.80
2022-11-23T10:34:44.356Z,13.77
2022-11-23T10:37:11.815Z,14.30
2022-11-23T10:39:38.250Z,19.08
2022-11-23T10:42:14.603Z,13.88
2022-11-23T10:44:43.077Z,9.63
2022-11-23T10:47:09.429Z,11.10
2022-11-23T10:49:36.148Z,7.00
2022-11-23T10:52:05.159Z,8.10
2022-11-23T10:54:34.885Z,7.38
2022-11-23T10:57:03.197Z,7.60
2022-11-23T10:59:29.745Z,5.65
2022-11-23T11:02:05.248Z,10.43
2022-11-23T11:04:31.909Z,12.88
2022-11-23T11:07:31.207Z,12.55
2022-11-23T11:09:58.911Z,12.40
2022-11-23T11:12:25.914Z,10.02
2022-11-23T11:15:05.219Z,11.32
2022-11-23T11:17:39.209Z,13.27
2022-11-23T11:20:24.263Z,9.50
2022-11-23T11:22:50.576Z,12.13
2022-11-23T11:25:27.407Z,16.27
2022-11-23T11:27:53.802Z,9.18
2022-11-23T11:30:22.549Z,10.77
2022-11-23T11:32:48.860Z,8.75
2022-11-23T11:35:23.986Z,9.13
2022-11-23T11:37:51.374Z,10.27
2022-11-23T11:40:36.377Z,10.75
2022-11-23T11:43:02.682Z,11.38
2022-11-23T11:45:31.879Z,8.27
2022-11-23T11:48:04.551Z,16.35
2022-11-23T11:50:34.351Z,9.52
2022-11-23T11:53:05.552Z,10.68
2022-11-23T11:55:50.814Z,5.22
2022-11-23T11:58:17.634Z,9.50
2022-11-23T12:00:45.881Z,10.43
2022-11-23T12:03:20.221Z,9.13
2022-11-23T12:05:49.080Z,5.28
2022-11-23T12:08:18.233Z,8.50
2022-11-23T12:10:44.536Z,13.55
2022-11-23T12:13:21.417Z,13.82
2022-11-23T12:15:50.805Z,10.55
2022-11-23T12:18:23.492Z,5.45
2022-11-23T12:20:49.814Z,9.07
2022-11-23T12:23:23.569Z,7.45
2022-11-23T12:26:08.027Z,8.93
2022-11-23T12:28:46.514Z,9.00
2022-11-23T12:31:15.923Z,9.05
2022-11-23T12:34:00.901Z,7.65
2022-11-23T12:36:29.990Z,7.63
2022-11-23T12:39:16.118Z,7.85
2022-11-23T12:41:58.762Z,11.52
2022-11-23T12:44:57.596Z,9.02
2022-11-23T12:47:41.624Z,6.28
2022-11-23T12:50:26.138Z,4.38
2022-11-23T12:53:11.129Z,4.35
2022-11-23T12:55:46.637Z,6.57
2022-11-23T12:58:23.728Z,3.38
2022-11-23T13:00:53.980Z,7.85
2022-11-23T13:03:31.106Z,3.83
2022-11-23T13:06:09.384Z,4.82
2022-11-23T13:08:41.699Z,7.90
2022-11-23T13:11:10.934Z,9.32
2022-11-23T13:13:49.275Z,8.80
2022-11-23T13:16:25.718Z,5.03
2022-11-23T13:19:06.969Z,6.63
2022-11-23T13:21:37.511Z,5.45
2022-11-23T13:24:04.031Z,4.80
2022-11-23T13:26:33.527Z,4.20
2022-11-23T13:29:01.431Z,3.65
2022-11-23T13:31:31.620Z,11.93
2022-11-23T13:34:02.655Z,5.30
2022-11-23T13:37:04.428Z,3.95
2022-11-23T13:39:57.838Z,4.07
2022-11-23T13:42:24.967Z,5.60
2022-11-23T13:45:09.765Z,5.65
2022-11-23T13:47:40.759Z,4.38
2022-11-23T13:50:16.904Z,3.55
2022-11-23T13:52:49.375Z,7.85
2022-11-23T13:55:20.259Z,6.35
2022-11-23T13:58:06.913Z,4.88
2022-11-23T14:00:52.820Z,4.25
2022-11-23T14:03:38.734Z,5.70
2022-11-23T14:06:25.361Z,4.30
2022-11-23T14:08:53.638Z,5.40
2022-11-23T14:11:22.277Z,5.32
2022-11-23T14:13:52.967Z,5.15
2022-11-23T14:16:25.351Z,3.33
2022-11-23T14:18:56.539Z,3.88
2022-11-23T14:21:22.928Z,7.53
2022-11-23T14:23:58.604Z,3.42
2022-11-23T14:26:27.863Z,2.75
2022-11-23T14:28:57.314Z,5.43
2022-11-23T14:31:36.252Z,5.93
2022-11-23T14:34:25.457Z,3.05
2022-11-23T14:37:18.014Z,6.07
2022-11-23T14:39:59.855Z,6.18
2022-11-23T14:42:28.162Z,6.45
2022-11-23T14:44:55.811Z,5.43
2022-11-23T14:47:29.973Z,5.90
2022-11-23T14:49:56.552Z,5.18
2022-11-23T14:52:24.556Z,5.55
2022-11-23T14:54:52.178Z,2.50
2022-11-23T14:57:20.435Z,3.72
2022-11-23T14:59:48.923Z,3.35
2022-11-23T15:02:20.667Z,3.67
2022-11-23T15:05:05.641Z,4.07
2022-11-23T15:07:55.167Z,4.50
2022-11-23T15:10:24.677Z,3.78
2022-11-23T15:12:51.005Z,7.03
2022-11-23T15:15:21.512Z,4.20
2022-11-23T15:17:51.919Z,4.13
2022-11-23T15:20:18.632Z,4.78
2022-11-23T15:22:44.994Z,5.53
2022-11-23T15:25:14.629Z,4.15
2022-11-23T15:27:44.230Z,5.13
2022-11-23T15:30:21.119Z,2.38
2022-11-23T15:32:58.190Z,5.97
2022-11-23T15:35:29.551Z,4.93
2022-11-23T15:37:55.974Z,2.72
2022-11-23T15:40:23.248Z,5.60
2022-11-23T15:42:50.951Z,6.00
2022-11-23T15:45:52.873Z,4.88
2022-11-23T15:48:21.623Z,5.50
2022-11-23T15:50:52.537Z,1.30
2022-11-23T15:53:20.183Z,2.53
2022-11-23T15:55:46.772Z,2.72
2022-11-23T15:58:20.373Z,2.25
2022-11-23T16:00:48.737Z,2.88
2022-11-23T16:03:24.243Z,3.15
2022-11-23T16:06:09.188Z,3.35
2022-11-23T16:08:36.414Z,7.03
2022-11-23T16:11:02.977Z,3.42
2022-11-23T16:13:36.266Z,6.80
2022-11-23T16:16:05.102Z,5.55
2022-11-23T16:18:34.521Z,4.00
2022-11-23T16:21:02.362Z,3.85
2022-11-23T16:23:43.185Z,2.42
2022-11-23T16:26:09.829Z,6.03
2022-11-23T16:28:55.222Z,3.13
2022-11-23T16:31:31.572Z,2.23
2022-11-23T16:33:57.961Z,4.03
2022-11-23T16:36:26.621Z,4.22
2022-11-23T16:38:52.962Z,2.78
2022-11-23T16:41:19.383Z,6.57
2022-11-23T16:43:45.930Z,4.80
2022-11-23T16:46:12.411Z,4.10
2022-11-23T16:48:42.426Z,5.57
2022-11-23T16:51:14.430Z,4.50
2022-11-23T16:54:08.164Z,5.10
2022-11-23T16:56:28.275Z,4.70
2022-11-23T16:58:55.192Z,6.40
2022-11-23T17:01:26.374Z,5.93
2022-11-23T17:03:56.131Z,4.82
2022-11-23T17:06:23.184Z,5.07
2022-11-23T17:08:57.715Z,3.92
2022-11-23T17:11:27.378Z,2.40
2022-11-23T17:13:55.019Z,3.65
2022-11-23T17:16:22.337Z,6.68
2022-11-23T17:18:48.744Z,3.42
2022-11-23T17:21:15.175Z,6.00
2022-11-23T17:23:42.698Z,3.50
2022-11-23T17:26:28.096Z,5.38
2022-11-23T17:28:54.655Z,3.97
2022-11-23T17:31:21.590Z,5.20
2022-11-23T17:33:48.047Z,4.40
2022-11-23T17:36:14.403Z,6.22
2022-11-23T17:38:44.487Z,6.55
2022-11-23T17:41:10.911Z,4.90
2022-11-23T17:43:37.406Z,3.92
2022-11-23T17:46:04.239Z,7.13
2022-11-23T17:48:30.698Z,3.83
2022-11-23T17:50:57.148Z,4.70
2022-11-23T17:53:25.551Z,5.05
2022-11-23T17:55:52.021Z,8.75
2022-11-23T17:58:18.919Z,5.70
2022-11-23T18:00:45.312Z,6.60
2022-11-23T18:03:11.703Z,8.88
2022-11-23T18:05:38.054Z,8.50
2022-11-23T18:08:04.443Z,5.47
2022-11-23T18:10:30.866Z,8.23
2022-11-23T18:12:57.841Z,7.95
2022-11-23T18:15:24.178Z,8.38
2022-11-23T18:17:50.497Z,7.90
2022-11-23T18:20:16.924Z,9.70
2022-11-23T18:22:43.290Z,8.60
2022-11-23T18:25:09.599Z,10.48
2022-11-23T18:27:35.986Z,5.13
2022-11-23T18:30:02.379Z,9.73
2022-11-23T18:32:28.730Z,9.23
2022-11-23T18:34:55.035Z,11.15
2022-11-23T18:37:21.418Z,8.02
2022-11-23T18:39:47.733Z,9.02
2022-11-23T18:42:14.250Z,9.40
2022-11-23T18:44:40.584Z,7.75
2022-11-23T18:47:06.861Z,10.30
2022-11-23T18:49:33.464Z,8.77
2022-11-23T18:52:00.045Z,6.38
2022-11-23T18:54:26.434Z,9.88
2022-11-23T18:56:52.751Z,11.00
2022-11-23T18:59:56.129Z,11.15
2022-11-23T19:02:08.964Z,8.45
2022-11-23T19:04:35.429Z,9.80
2022-11-23T19:07:01.879Z,12.65
2022-11-23T19:09:28.226Z,10.10
2022-11-23T19:11:54.997Z,9.88
2022-11-23T19:14:21.385Z,11.75
2022-11-23T19:16:47.907Z,9.40
2022-11-23T19:19:14.349Z,11.25
2022-11-23T19:21:40.743Z,9.43
2022-11-23T19:24:08.989Z,15.55
2022-11-23T19:26:36.288Z,9.88
2022-11-23T19:29:02.717Z,13.55
2022-11-23T19:31:30.546Z,9.65
2022-11-23T19:33:58.618Z,6.65
2022-11-23T19:36:25.441Z,12.73
2022-11-23T19:38:52.305Z,14.13
2022-11-23T19:41:18.999Z,13.98
2022-11-23T19:43:45.822Z,10.45
2022-11-23T19:46:13.113Z,7.80
2022-11-23T19:48:40.023Z,20.45
2022-11-23T19:51:07.852Z,12.95
2022-11-23T19:53:35.371Z,8.27
2022-11-23T19:56:02.734Z,13.70
2022-11-23T19:58:31.035Z,10.65
2022-11-23T20:01:01.037Z,14.95
2022-11-23T20:03:27.521Z,8.80
2022-11-23T20:05:55.216Z,10.88
2022-11-23T20:08:21.704Z,13.63
2022-11-23T20:10:48.211Z,10.68
2022-11-23T20:13:14.717Z,9.27
2022-11-23T20:15:43.867Z,9.95
2022-11-23T20:18:10.955Z,9.95
2022-11-23T20:20:41.094Z,12.30
2022-11-23T20:23:07.669Z,10.02
2022-11-23T20:25:37.697Z,10.68
2022-11-23T20:28:04.642Z,11.93
2022-11-23T20:30:32.885Z,16.23
2022-11-23T20:32:59.415Z,12.02
2022-11-23T20:35:25.796Z,14.45
2022-11-23T20:37:52.135Z,10.85
2022-11-23T20:40:18.832Z,13.82
2022-11-23T20:42:45.195Z,17.02
2022-11-23T20:45:12.153Z,16.42
2022-11-23T20:47:38.763Z,16.40
2022-11-23T20:50:05.834Z,13.20
2022-11-23T20:52:32.320Z,11.73
2022-11-23T20:54:58.727Z,14.40
2022-11-23T20:57:25.191Z,14.50
2022-11-23T20:59:51.525Z,15.52
2022-11-23T21:02:18.024Z,15.68
2022-11-23T21:04:45.674Z,13.75
2022-11-23T21:07:12.311Z,25.60
2022-11-23T21:09:38.830Z,15.25
2022-11-23T21:12:23.878Z,20.80
2022-11-23T21:14:50.214Z,19.15
2022-11-23T21:17:16.716Z,17.58
2022-11-23T21:19:43.163Z,22.08
2022-11-23T21:22:10.959Z,19.33
2022-11-23T21:24:37.872Z,20.90
2022-11-23T21:27:04.698Z,14.10
2022-11-23T21:29:31.492Z,16.65
2022-11-23T21:31:57.828Z,14.45
2022-11-23T21:34:25.844Z,20.38
2022-11-23T21:36:53.011Z,18.80
2022-11-23T21:39:19.617Z,22.33
2022-11-23T21:41:46.183Z,26.27
2022-11-23T21:44:12.742Z,17.17
2022-11-23T21:46:39.902Z,15.82
2022-11-23T21:49:06.825Z,17.15
2022-11-23T21:51:33.227Z,20.00
2022-11-23T21:54:00.743Z,18.15
2022-11-23T21:56:27.968Z,22.50
2022-11-23T21:58:54.464Z,15.43
2022-11-23T22:01:22.026Z,21.17
2022-11-23T22:03:49.514Z,20.90
2022-11-23T22:06:20.429Z,22.17
2022-11-23T22:08:48.250Z,12.57
2022-11-23T22:11:19.171Z,23.13
2022-11-23T22:13:45.589Z,18.88
2022-11-23T22:16:12.026Z,23.42
2022-11-23T22:18:38.485Z,21.45
2022-11-23T22:21:05.301Z,20.80
2022-11-23T22:23:31.716Z,25.75
2022-11-23T22:26:01.543Z,18.23
2022-11-23T22:28:31.794Z,18.80
2022-11-23T22:30:58.474Z,16.20
2022-11-23T22:33:24.827Z,17.17
2022-11-23T22:35:51.445Z,26.45
2022-11-23T22:38:17.828Z,15.43
2022-11-23T22:40:47.626Z,22.15
2022-11-23T22:43:13.980Z,15.27
2022-11-23T22:45:40.462Z,16.98
2022-11-23T22:48:07.238Z,22.25
2022-11-23T22:50:33.542Z,16.25
2022-11-23T22:52:59.951Z,11.73
2022-11-23T22:55:26.295Z,13.95
2022-11-23T22:57:52.619Z,17.95
2022-11-23T23:00:19.119Z,15.57
2022-11-23T23:02:46.106Z,15.35
2022-11-23T23:05:12.468Z,13.45
2022-11-23T23:07:38.819Z,14.38
2022-11-23T23:10:05.554Z,13.82
2022-11-23T23:12:31.915Z,13.80
2022-11-23T23:14:58.540Z,10.57
2022-11-23T23:17:25.154Z,11.98
2022-11-23T23:19:51.457Z,12.98
2022-11-23T23:22:17.786Z,15.88
2022-11-23T23:24:44.926Z,14.15
2022-11-23T23:27:11.294Z,10.38
2022-11-23T23:29:38.390Z,9.98
2022-11-23T23:32:04.862Z,9.88
2022-11-23T23:34:31.803Z,8.13
2022-11-23T23:36:58.394Z,8.15
2022-11-23T23:39:24.710Z,10.10
2022-11-23T23:41:51.030Z,11.18
2022-11-23T23:44:17.858Z,10.20
2022-11-23T23:46:44.598Z,11.35
2022-11-23T23:49:10.888Z,13.90
2022-11-23T23:51:37.902Z,13.02
2022-11-23T23:54:04.287Z,8.30
2022-11-23T23:56:30.626Z,14.85
2022-11-23T23:58:58.157Z,15.90
